sensor_id;sensor_type;location;lat;lon;timestamp;P1;durP1;ratioP1;P2;durP2;ratioP2
29814;SDS011;16708;50.426;7.664;2023-05-10T00:02:43;2.30;;;1.50;;
29814;SDS011;16708;50.426;7.664;2023-05-10T00:07:38;1.50;;;1.20;;
29814;SDS011;16708;50.426;7.664;2023-05-10T00:12:32;2.80;;;1.30;;
29814;SDS011;16708;50.426;7.664;2023-05-10T00:17:26;1.70;;;1.30;;
29814;SDS011;16708;50.426;7.664;2023-05-10T00:22:20;1.50;;;1.00;;
29814;SDS011;16708;50.426;7.664;2023-05-10T00:27:15;1.60;;;1.00;;
29814;SDS011;16708;50.426;7.664;2023-05-10T00:32:10;3.10;;;1.30;;
29814;SDS011;16708;50.426;7.664;2023-05-10T00:37:04;1.60;;;1.40;;
29814;SDS011;16708;50.426;7.664;2023-05-10T00:41:58;1.80;;;1.40;;
29814;SDS011;16708;50.426;7.664;2023-05-10T00:46:52;3.20;;;1.40;;
29814;SDS011;16708;50.426;7.664;2023-05-10T00:51:45;2.00;;;1.60;;
29814;SDS011;16708;50.426;7.664;2023-05-10T00:56:39;2.10;;;1.50;;
29814;SDS011;16708;50.426;7.664;2023-05-10T01:01:33;2.80;;;1.50;;
29814;SDS011;16708;50.426;7.664;2023-05-10T01:06:27;4.70;;;1.80;;
29814;SDS011;16708;50.426;7.664;2023-05-10T01:11:21;3.10;;;2.10;;
29814;SDS011;16708;50.426;7.664;2023-05-10T01:16:13;3.90;;;2.50;;
29814;SDS011;16708;50.426;7.664;2023-05-10T01:30:53;5.80;;;2.30;;
29814;SDS011;16708;50.426;7.664;2023-05-10T01:35:47;4.00;;;2.70;;
29814;SDS011;16708;50.426;7.664;2023-05-10T01:40:41;5.30;;;2.90;;
29814;SDS011;16708;50.426;7.664;2023-05-10T01:45:35;5.00;;;3.20;;
29814;SDS011;16708;50.426;7.664;2023-05-10T01:50:30;8.20;;;4.00;;
29814;SDS011;16708;50.426;7.664;2023-05-10T01:55:24;10.00;;;3.90;;
29814;SDS011;16708;50.426;7.664;2023-05-10T02:00:19;8.50;;;4.40;;
29814;SDS011;16708;50.426;7.664;2023-05-10T02:05:13;10.30;;;5.60;;
29814;SDS011;16708;50.426;7.664;2023-05-10T02:10:08;9.50;;;5.80;;
29814;SDS011;16708;50.426;7.664;2023-05-10T02:15:02;11.30;;;5.80;;
29814;SDS011;16708;50.426;7.664;2023-05-10T02:19:56;10.60;;;5.60;;
29814;SDS011;16708;50.426;7.664;2023-05-10T02:24:50;12.20;;;6.20;;
29814;SDS011;16708;50.426;7.664;2023-05-10T02:29:47;12.30;;;6.60;;
29814;SDS011;16708;50.426;7.664;2023-05-10T02:34:38;9.10;;;4.80;;
29814;SDS011;16708;50.426;7.664;2023-05-10T02:39:31;6.90;;;3.90;;
29814;SDS011;16708;50.426;7.664;2023-05-10T02:44:26;7.50;;;4.00;;
29814;SDS011;16708;50.426;7.664;2023-05-10T02:49:20;8.90;;;4.50;;
29814;SDS011;16708;50.426;7.664;2023-05-10T02:54:15;5.10;;;3.30;;
29814;SDS011;16708;50.426;7.664;2023-05-10T02:59:10;4.10;;;2.50;;
29814;SDS011;16708;50.426;7.664;2023-05-10T03:04:04;4.90;;;2.90;;
29814;SDS011;16708;50.426;7.664;2023-05-10T03:08:58;3.90;;;2.50;;
29814;SDS011;16708;50.426;7.664;2023-05-10T03:13:52;4.00;;;2.00;;
29814;SDS011;16708;50.426;7.664;2023-05-10T03:18:46;4.80;;;2.30;;
29814;SDS011;16708;50.426;7.664;2023-05-10T03:23:40;4.30;;;2.40;;
29814;SDS011;16708;50.426;7.664;2023-05-10T03:28:34;3.90;;;2.10;;
29814;SDS011;16708;50.426;7.664;2023-05-10T03:38:23;5.10;;;3.00;;
29814;SDS011;16708;50.426;7.664;2023-05-10T03:43:18;4.70;;;2.90;;
29814;SDS011;16708;50.426;7.664;2023-05-10T03:48:11;4.20;;;2.40;;
29814;SDS011;16708;50.426;7.664;2023-05-10T03:53:07;4.60;;;2.50;;
29814;SDS011;16708;50.426;7.664;2023-05-10T03:58:00;4.20;;;2.50;;
29814;SDS011;16708;50.426;7.664;2023-05-10T04:02:54;5.30;;;2.80;;
29814;SDS011;16708;50.426;7.664;2023-05-10T04:07:49;6.20;;;3.00;;
29814;SDS011;16708;50.426;7.664;2023-05-10T04:12:42;6.90;;;3.40;;
29814;SDS011;16708;50.426;7.664;2023-05-10T04:17:36;7.30;;;3.80;;
29814;SDS011;16708;50.426;7.664;2023-05-10T04:22:30;7.70;;;3.90;;
29814;SDS011;16708;50.426;7.664;2023-05-10T04:27:25;6.50;;;3.30;;
29814;SDS011;16708;50.426;7.664;2023-05-10T04:32:19;5.60;;;3.50;;
29814;SDS011;16708;50.426;7.664;2023-05-10T04:37:13;9.00;;;4.00;;
29814;SDS011;16708;50.426;7.664;2023-05-10T04:42:07;7.30;;;3.80;;
29814;SDS011;16708;50.426;7.664;2023-05-10T04:47:02;6.50;;;3.10;;
29814;SDS011;16708;50.426;7.664;2023-05-10T04:51:56;7.60;;;3.60;;
29814;SDS011;16708;50.426;7.664;2023-05-10T04:56:50;6.70;;;3.50;;
29814;SDS011;16708;50.426;7.664;2023-05-10T05:01:45;9.70;;;4.30;;
29814;SDS011;16708;50.426;7.664;2023-05-10T05:06:39;9.90;;;5.10;;
29814;SDS011;16708;50.426;7.664;2023-05-10T05:11:32;13.50;;;6.20;;
29814;SDS011;16708;50.426;7.664;2023-05-10T05:16:27;12.70;;;7.10;;
29814;SDS011;16708;50.426;7.664;2023-05-10T05:21:22;16.30;;;6.90;;
29814;SDS011;16708;50.426;7.664;2023-05-10T05:26:17;12.80;;;6.30;;
29814;SDS011;16708;50.426;7.664;2023-05-10T05:31:11;13.00;;;6.50;;
29814;SDS011;16708;50.426;7.664;2023-05-10T05:36:06;10.90;;;6.30;;
29814;SDS011;16708;50.426;7.664;2023-05-10T05:41:00;12.70;;;6.00;;
29814;SDS011;16708;50.426;7.664;2023-05-10T05:45:55;12.70;;;6.20;;
29814;SDS011;16708;50.426;7.664;2023-05-10T05:50:48;10.30;;;6.10;;
29814;SDS011;16708;50.426;7.664;2023-05-10T05:55:43;13.10;;;6.20;;
29814;SDS011;16708;50.426;7.664;2023-05-10T06:00:37;14.50;;;6.40;;
29814;SDS011;16708;50.426;7.664;2023-05-10T06:05:31;12.30;;;6.20;;
29814;SDS011;16708;50.426;7.664;2023-05-10T06:10:26;11.00;;;5.60;;
29814;SDS011;16708;50.426;7.664;2023-05-10T06:15:21;11.20;;;5.80;;
29814;SDS011;16708;50.426;7.664;2023-05-10T06:20:15;9.50;;;4.80;;
29814;SDS011;16708;50.426;7.664;2023-05-10T06:25:10;8.60;;;4.80;;
29814;SDS011;16708;50.426;7.664;2023-05-10T06:30:05;6.90;;;4.00;;
29814;SDS011;16708;50.426;7.664;2023-05-10T06:34:59;7.20;;;3.80;;
29814;SDS011;16708;50.426;7.664;2023-05-10T06:39:52;12.70;;;3.60;;
29814;SDS011;16708;50.426;7.664;2023-05-10T06:44:44;5.60;;;3.70;;
29814;SDS011;16708;50.426;7.664;2023-05-10T06:49:39;7.50;;;3.60;;
29814;SDS011;16708;50.426;7.664;2023-05-10T06:54:33;7.80;;;3.80;;
29814;SDS011;16708;50.426;7.664;2023-05-10T06:59:27;5.60;;;3.30;;
29814;SDS011;16708;50.426;7.664;2023-05-10T07:04:22;7.20;;;3.30;;
29814;SDS011;16708;50.426;7.664;2023-05-10T07:09:17;6.90;;;3.30;;
29814;SDS011;16708;50.426;7.664;2023-05-10T07:14:11;7.40;;;3.70;;
29814;SDS011;16708;50.426;7.664;2023-05-10T07:19:05;6.80;;;3.90;;
29814;SDS011;16708;50.426;7.664;2023-05-10T07:23:59;9.20;;;4.40;;
29814;SDS011;16708;50.426;7.664;2023-05-10T07:28:53;8.80;;;4.40;;
29814;SDS011;16708;50.426;7.664;2023-05-10T07:33:48;7.90;;;4.00;;
29814;SDS011;16708;50.426;7.664;2023-05-10T07:38:42;7.90;;;3.60;;
29814;SDS011;16708;50.426;7.664;2023-05-10T07:43:37;4.80;;;2.70;;
29814;SDS011;16708;50.426;7.664;2023-05-10T07:48:31;6.00;;;2.90;;
29814;SDS011;16708;50.426;7.664;2023-05-10T07:53:25;6.00;;;3.10;;
29814;SDS011;16708;50.426;7.664;2023-05-10T07:58:19;7.10;;;2.50;;
29814;SDS011;16708;50.426;7.664;2023-05-10T08:03:14;8.50;;;2.70;;
29814;SDS011;16708;50.426;7.664;2023-05-10T08:08:08;4.90;;;2.60;;
29814;SDS011;16708;50.426;7.664;2023-05-10T08:13:03;5.50;;;2.30;;
29814;SDS011;16708;50.426;7.664;2023-05-10T08:17:58;5.60;;;2.50;;
29814;SDS011;16708;50.426;7.664;2023-05-10T08:22:52;4.60;;;2.20;;
29814;SDS011;16708;50.426;7.664;2023-05-10T08:27:47;5.00;;;2.00;;
29814;SDS011;16708;50.426;7.664;2023-05-10T08:32:41;7.40;;;1.90;;
29814;SDS011;16708;50.426;7.664;2023-05-10T08:37:37;8.40;;;2.70;;
29814;SDS011;16708;50.426;7.664;2023-05-10T08:42:30;6.60;;;2.30;;
29814;SDS011;16708;50.426;7.664;2023-05-10T08:47:25;10.00;;;2.50;;
29814;SDS011;16708;50.426;7.664;2023-05-10T08:52:19;4.10;;;2.00;;
29814;SDS011;16708;50.426;7.664;2023-05-10T08:57:12;5.50;;;2.10;;
29814;SDS011;16708;50.426;7.664;2023-05-10T09:02:05;8.40;;;2.30;;
29814;SDS011;16708;50.426;7.664;2023-05-10T09:06:59;5.00;;;2.10;;
29814;SDS011;16708;50.426;7.664;2023-05-10T09:11:53;5.00;;;2.10;;
29814;SDS011;16708;50.426;7.664;2023-05-10T09:16:48;4.90;;;1.90;;
29814;SDS011;16708;50.426;7.664;2023-05-10T09:26:37;7.70;;;2.10;;
29814;SDS011;16708;50.426;7.664;2023-05-10T09:41:20;3.60;;;1.40;;
29814;SDS011;16708;50.426;7.664;2023-05-10T09:46:13;2.60;;;1.00;;
29814;SDS011;16708;50.426;7.664;2023-05-10T09:51:08;3.00;;;0.80;;
29814;SDS011;16708;50.426;7.664;2023-05-10T09:56:02;1.80;;;0.60;;
29814;SDS011;16708;50.426;7.664;2023-05-10T10:00:56;4.50;;;0.80;;
29814;SDS011;16708;50.426;7.664;2023-05-10T10:05:50;2.60;;;0.60;;
29814;SDS011;16708;50.426;7.664;2023-05-10T10:10:45;2.60;;;0.50;;
29814;SDS011;16708;50.426;7.664;2023-05-10T10:15:40;1.00;;;0.40;;
29814;SDS011;16708;50.426;7.664;2023-05-10T10:20:35;1.00;;;0.50;;
29814;SDS011;16708;50.426;7.664;2023-05-10T10:25:30;0.90;;;0.30;;
29814;SDS011;16708;50.426;7.664;2023-05-10T10:30:25;1.40;;;0.30;;
29814;SDS011;16708;50.426;7.664;2023-05-10T10:35:19;2.00;;;0.50;;
29814;SDS011;16708;50.426;7.664;2023-05-10T10:45:09;1.00;;;0.30;;
29814;SDS011;16708;50.426;7.664;2023-05-10T10:50:04;0.90;;;0.30;;
29814;SDS011;16708;50.426;7.664;2023-05-10T10:54:59;1.20;;;0.40;;
29814;SDS011;16708;50.426;7.664;2023-05-10T11:14:37;1.50;;;0.20;;
29814;SDS011;16708;50.426;7.664;2023-05-10T11:24:28;1.40;;;0.30;;
29814;SDS011;16708;50.426;7.664;2023-05-10T11:29:20;1.30;;;0.40;;
29814;SDS011;16708;50.426;7.664;2023-05-10T11:39:09;0.60;;;0.30;;
29814;SDS011;16708;50.426;7.664;2023-05-10T11:44:03;0.40;;;0.20;;
29814;SDS011;16708;50.426;7.664;2023-05-10T11:48:58;2.20;;;0.40;;
29814;SDS011;16708;50.426;7.664;2023-05-10T11:53:51;0.70;;;0.30;;
29814;SDS011;16708;50.426;7.664;2023-05-10T11:58:43;3.30;;;0.40;;
29814;SDS011;16708;50.426;7.664;2023-05-10T12:03:37;0.70;;;0.40;;
29814;SDS011;16708;50.426;7.664;2023-05-10T12:13:25;1.60;;;0.50;;
29814;SDS011;16708;50.426;7.664;2023-05-10T12:23:13;1.90;;;0.40;;
29814;SDS011;16708;50.426;7.664;2023-05-10T12:28:07;1.20;;;0.50;;
29814;SDS011;16708;50.426;7.664;2023-05-10T12:33:01;2.00;;;0.70;;
29814;SDS011;16708;50.426;7.664;2023-05-10T12:37:55;1.50;;;0.50;;
29814;SDS011;16708;50.426;7.664;2023-05-10T12:42:49;7.50;;;0.90;;
29814;SDS011;16708;50.426;7.664;2023-05-10T12:47:42;3.30;;;0.80;;
29814;SDS011;16708;50.426;7.664;2023-05-10T12:52:38;2.40;;;0.60;;
29814;SDS011;16708;50.426;7.664;2023-05-10T12:57:29;1.20;;;1.00;;
29814;SDS011;16708;50.426;7.664;2023-05-10T13:02:22;1.60;;;0.70;;
29814;SDS011;16708;50.426;7.664;2023-05-10T13:07:17;2.90;;;0.80;;
29814;SDS011;16708;50.426;7.664;2023-05-10T13:12:11;2.30;;;0.60;;
29814;SDS011;16708;50.426;7.664;2023-05-10T13:17:06;3.50;;;0.60;;
29814;SDS011;16708;50.426;7.664;2023-05-10T13:22:00;2.10;;;0.70;;
29814;SDS011;16708;50.426;7.664;2023-05-10T13:26:56;4.00;;;0.60;;
29814;SDS011;16708;50.426;7.664;2023-05-10T13:31:50;3.10;;;0.70;;
29814;SDS011;16708;50.426;7.664;2023-05-10T13:36:44;7.80;;;1.10;;
29814;SDS011;16708;50.426;7.664;2023-05-10T13:41:38;2.20;;;0.60;;
29814;SDS011;16708;50.426;7.664;2023-05-10T13:46:33;2.50;;;0.50;;
29814;SDS011;16708;50.426;7.664;2023-05-10T13:51:27;0.40;;;0.40;;
29814;SDS011;16708;50.426;7.664;2023-05-10T13:56:21;1.20;;;0.50;;
29814;SDS011;16708;50.426;7.664;2023-05-10T14:01:15;3.40;;;0.60;;
29814;SDS011;16708;50.426;7.664;2023-05-10T14:06:09;0.90;;;0.60;;
29814;SDS011;16708;50.426;7.664;2023-05-10T14:11:02;1.10;;;0.60;;
29814;SDS011;16708;50.426;7.664;2023-05-10T14:15:58;0.80;;;0.50;;
29814;SDS011;16708;50.426;7.664;2023-05-10T14:20:52;2.00;;;0.50;;
29814;SDS011;16708;50.426;7.664;2023-05-10T14:25:43;2.30;;;0.70;;
29814;SDS011;16708;50.426;7.664;2023-05-10T14:30:37;0.60;;;0.50;;
29814;SDS011;16708;50.426;7.664;2023-05-10T14:35:31;1.60;;;0.50;;
29814;SDS011;16708;50.426;7.664;2023-05-10T14:40:26;1.10;;;0.50;;
29814;SDS011;16708;50.426;7.664;2023-05-10T14:45:21;0.70;;;0.50;;
29814;SDS011;16708;50.426;7.664;2023-05-10T14:50:15;1.60;;;0.70;;
29814;SDS011;16708;50.426;7.664;2023-05-10T14:55:08;1.10;;;0.60;;
29814;SDS011;16708;50.426;7.664;2023-05-10T15:00:02;2.20;;;0.60;;
29814;SDS011;16708;50.426;7.664;2023-05-10T15:04:56;1.20;;;0.50;;
29814;SDS011;16708;50.426;7.664;2023-05-10T15:09:50;0.70;;;0.60;;
29814;SDS011;16708;50.426;7.664;2023-05-10T15:14:45;0.40;;;0.30;;
29814;SDS011;16708;50.426;7.664;2023-05-10T15:19:47;1.00;;;0.50;;
29814;SDS011;16708;50.426;7.664;2023-05-10T15:24:31;0.60;;;0.30;;
29814;SDS011;16708;50.426;7.664;2023-05-10T15:29:25;0.60;;;0.30;;
29814;SDS011;16708;50.426;7.664;2023-05-10T15:34:20;2.80;;;0.40;;
29814;SDS011;16708;50.426;7.664;2023-05-10T15:39:14;0.30;;;0.30;;
29814;SDS011;16708;50.426;7.664;2023-05-10T15:44:09;1.60;;;0.20;;
29814;SDS011;16708;50.426;7.664;2023-05-10T15:49:03;1.00;;;0.30;;
29814;SDS011;16708;50.426;7.664;2023-05-10T15:53:58;0.60;;;0.20;;
29814;SDS011;16708;50.426;7.664;2023-05-10T15:58:52;0.60;;;0.20;;
29814;SDS011;16708;50.426;7.664;2023-05-10T16:03:47;3.00;;;0.40;;
29814;SDS011;16708;50.426;7.664;2023-05-10T16:08:42;0.80;;;0.30;;
29814;SDS011;16708;50.426;7.664;2023-05-10T16:13:36;4.00;;;1.90;;
29814;SDS011;16708;50.426;7.664;2023-05-10T16:18:30;2.00;;;0.40;;
29814;SDS011;16708;50.426;7.664;2023-05-10T16:23:26;2.50;;;0.40;;
29814;SDS011;16708;50.426;7.664;2023-05-10T16:28:22;2.70;;;0.40;;
29814;SDS011;16708;50.426;7.664;2023-05-10T16:33:17;0.50;;;0.40;;
29814;SDS011;16708;50.426;7.664;2023-05-10T16:38:13;2.40;;;0.40;;
29814;SDS011;16708;50.426;7.664;2023-05-10T16:43:08;0.60;;;0.40;;
29814;SDS011;16708;50.426;7.664;2023-05-10T16:48:04;0.60;;;0.40;;
29814;SDS011;16708;50.426;7.664;2023-05-10T16:52:55;1.10;;;0.30;;
29814;SDS011;16708;50.426;7.664;2023-05-10T16:57:48;0.70;;;0.40;;
29814;SDS011;16708;50.426;7.664;2023-05-10T17:02:40;0.50;;;0.40;;
29814;SDS011;16708;50.426;7.664;2023-05-10T17:07:34;1.50;;;0.70;;
29814;SDS011;16708;50.426;7.664;2023-05-10T17:12:28;2.10;;;0.40;;
29814;SDS011;16708;50.426;7.664;2023-05-10T17:17:23;0.50;;;0.40;;
29814;SDS011;16708;50.426;7.664;2023-05-10T17:22:16;2.40;;;0.50;;
29814;SDS011;16708;50.426;7.664;2023-05-10T17:27:10;1.40;;;0.50;;
29814;SDS011;16708;50.426;7.664;2023-05-10T17:32:04;0.90;;;0.40;;
29814;SDS011;16708;50.426;7.664;2023-05-10T17:36:59;0.50;;;0.30;;
29814;SDS011;16708;50.426;7.664;2023-05-10T17:41:51;0.60;;;0.50;;
29814;SDS011;16708;50.426;7.664;2023-05-10T17:46:45;1.40;;;0.70;;
29814;SDS011;16708;50.426;7.664;2023-05-10T17:51:39;2.40;;;1.00;;
29814;SDS011;16708;50.426;7.664;2023-05-10T17:56:33;2.60;;;0.60;;
29814;SDS011;16708;50.426;7.664;2023-05-10T18:01:25;2.00;;;0.40;;
29814;SDS011;16708;50.426;7.664;2023-05-10T18:06:19;0.70;;;0.40;;
29814;SDS011;16708;50.426;7.664;2023-05-10T18:11:13;2.10;;;0.50;;
29814;SDS011;16708;50.426;7.664;2023-05-10T18:16:06;1.10;;;0.40;;
29814;SDS011;16708;50.426;7.664;2023-05-10T18:21:00;1.50;;;0.40;;
29814;SDS011;16708;50.426;7.664;2023-05-10T18:25:54;2.70;;;0.60;;
29814;SDS011;16708;50.426;7.664;2023-05-10T18:30:47;4.20;;;0.50;;
29814;SDS011;16708;50.426;7.664;2023-05-10T18:35:41;6.10;;;0.50;;
29814;SDS011;16708;50.426;7.664;2023-05-10T18:40:34;1.40;;;0.40;;
29814;SDS011;16708;50.426;7.664;2023-05-10T18:45:29;1.00;;;0.50;;
29814;SDS011;16708;50.426;7.664;2023-05-10T18:50:23;1.50;;;0.50;;
29814;SDS011;16708;50.426;7.664;2023-05-10T18:55:16;2.00;;;0.70;;
29814;SDS011;16708;50.426;7.664;2023-05-10T19:00:10;3.00;;;0.60;;
29814;SDS011;16708;50.426;7.664;2023-05-10T19:05:04;1.80;;;0.60;;
29814;SDS011;16708;50.426;7.664;2023-05-10T19:09:58;4.50;;;0.60;;
29814;SDS011;16708;50.426;7.664;2023-05-10T19:14:51;4.50;;;1.40;;
29814;SDS011;16708;50.426;7.664;2023-05-10T19:19:42;3.70;;;1.20;;
29814;SDS011;16708;50.426;7.664;2023-05-10T19:24:36;5.30;;;1.20;;
29814;SDS011;16708;50.426;7.664;2023-05-10T19:29:30;2.10;;;1.10;;
29814;SDS011;16708;50.426;7.664;2023-05-10T19:34:23;4.70;;;1.60;;
29814;SDS011;16708;50.426;7.664;2023-05-10T19:39:16;3.30;;;1.70;;
29814;SDS011;16708;50.426;7.664;2023-05-10T19:44:11;2.50;;;1.50;;
29814;SDS011;16708;50.426;7.664;2023-05-10T19:49:05;3.80;;;1.50;;
29814;SDS011;16708;50.426;7.664;2023-05-10T19:53:58;5.20;;;1.40;;
29814;SDS011;16708;50.426;7.664;2023-05-10T19:58:53;11.40;;;4.60;;
29814;SDS011;16708;50.426;7.664;2023-05-10T20:03:47;3.80;;;1.60;;
29814;SDS011;16708;50.426;7.664;2023-05-10T20:08:42;4.20;;;1.50;;
29814;SDS011;16708;50.426;7.664;2023-05-10T20:13:36;3.70;;;1.60;;
29814;SDS011;16708;50.426;7.664;2023-05-10T20:18:30;5.80;;;1.70;;
29814;SDS011;16708;50.426;7.664;2023-05-10T20:23:22;6.20;;;2.50;;
29814;SDS011;16708;50.426;7.664;2023-05-10T20:28:16;5.30;;;1.80;;
29814;SDS011;16708;50.426;7.664;2023-05-10T20:33:11;2.90;;;1.40;;
29814;SDS011;16708;50.426;7.664;2023-05-10T20:38:05;4.00;;;1.60;;
29814;SDS011;16708;50.426;7.664;2023-05-10T20:42:59;3.30;;;1.60;;
29814;SDS011;16708;50.426;7.664;2023-05-10T20:47:57;3.40;;;1.80;;
29814;SDS011;16708;50.426;7.664;2023-05-10T20:52:47;5.20;;;2.00;;
29814;SDS011;16708;50.426;7.664;2023-05-10T20:57:41;3.60;;;1.30;;
29814;SDS011;16708;50.426;7.664;2023-05-10T21:02:35;3.00;;;1.40;;
29814;SDS011;16708;50.426;7.664;2023-05-10T21:07:29;3.80;;;1.40;;
29814;SDS011;16708;50.426;7.664;2023-05-10T21:12:23;3.50;;;1.30;;
29814;SDS011;16708;50.426;7.664;2023-05-10T21:17:17;2.20;;;1.50;;
29814;SDS011;16708;50.426;7.664;2023-05-10T21:22:11;3.70;;;1.40;;
29814;SDS011;16708;50.426;7.664;2023-05-10T21:27:05;6.70;;;1.70;;
29814;SDS011;16708;50.426;7.664;2023-05-10T21:31:59;3.90;;;1.60;;
29814;SDS011;16708;50.426;7.664;2023-05-10T21:36:52;4.00;;;1.90;;
29814;SDS011;16708;50.426;7.664;2023-05-10T21:41:46;3.30;;;2.00;;
29814;SDS011;16708;50.426;7.664;2023-05-10T21:46:40;4.20;;;2.00;;
29814;SDS011;16708;50.426;7.664;2023-05-10T21:51:34;2.90;;;1.70;;
29814;SDS011;16708;50.426;7.664;2023-05-10T21:56:28;4.90;;;2.00;;
29814;SDS011;16708;50.426;7.664;2023-05-10T22:01:22;3.30;;;1.90;;
29814;SDS011;16708;50.426;7.664;2023-05-10T22:06:17;5.70;;;2.80;;
29814;SDS011;16708;50.426;7.664;2023-05-10T22:11:11;3.00;;;2.10;;
29814;SDS011;16708;50.426;7.664;2023-05-10T22:16:05;3.80;;;2.80;;
29814;SDS011;16708;50.426;7.664;2023-05-10T22:20:59;6.30;;;2.40;;
29814;SDS011;16708;50.426;7.664;2023-05-10T22:25:53;7.90;;;3.70;;
29814;SDS011;16708;50.426;7.664;2023-05-10T22:30:47;7.80;;;4.70;;
29814;SDS011;16708;50.426;7.664;2023-05-10T22:35:41;8.10;;;5.20;;
29814;SDS011;16708;50.426;7.664;2023-05-10T22:40:34;7.90;;;4.50;;
29814;SDS011;16708;50.426;7.664;2023-05-10T22:45:29;7.50;;;3.50;;
29814;SDS011;16708;50.426;7.664;2023-05-10T22:50:23;5.30;;;2.80;;
29814;SDS011;16708;50.426;7.664;2023-05-10T22:55:17;4.10;;;2.20;;
29814;SDS011;16708;50.426;7.664;2023-05-10T23:00:11;2.20;;;1.60;;
29814;SDS011;16708;50.426;7.664;2023-05-10T23:05:05;2.30;;;1.30;;
29814;SDS011;16708;50.426;7.664;2023-05-10T23:09:59;2.40;;;1.30;;
29814;SDS011;16708;50.426;7.664;2023-05-10T23:14:53;3.80;;;1.20;;
29814;SDS011;16708;50.426;7.664;2023-05-10T23:19:47;3.80;;;1.10;;
29814;SDS011;16708;50.426;7.664;2023-05-10T23:24:41;4.60;;;1.30;;
29814;SDS011;16708;50.426;7.664;2023-05-10T23:29:35;5.20;;;1.30;;
29814;SDS011;16708;50.426;7.664;2023-05-10T23:34:29;2.10;;;1.50;;
29814;SDS011;16708;50.426;7.664;2023-05-10T23:39:23;3.10;;;1.60;;
29814;SDS011;16708;50.426;7.664;2023-05-10T23:49:12;5.00;;;1.40;;
29814;SDS011;16708;50.426;7.664;2023-05-10T23:54:06;4.70;;;1.50;;
29814;SDS011;16708;50.426;7.664;2023-05-10T23:59:00;2.90;;;1.50;;
